createdAt,value
2022-08-22T00:00:27.533Z,4.25
2022-08-22T00:02:49.120Z,2.90
2022-08-22T00:03:04.654Z,3.53
2022-08-22T00:03:09.129Z,2.83
2022-08-22T00:03:10.645Z,3.90
2022-08-22T00:06:04.094Z,4.53
2022-08-22T00:08:49.431Z,4.50
2022-08-22T00:11:47.399Z,4.35
2022-08-22T00:14:49.423Z,4.10
2022-08-22T00:17:47.047Z,4.60
2022-08-22T00:20:28.056Z,4.40
2022-08-22T00:23:25.068Z,4.32
2022-08-22T00:25:56.343Z,4.28
2022-08-22T00:28:40.367Z,4.38
2022-08-22T00:31:22.354Z,4.40
2022-08-22T00:34:01.343Z,3.95
2022-08-22T00:36:34.360Z,4.53
2022-08-22T00:39:25.798Z,4.28
2022-08-22T00:42:08.245Z,4.53
2022-08-22T00:44:49.366Z,4.07
2022-08-22T00:47:45.353Z,4.25
2022-08-22T00:50:42.445Z,3.78
2022-08-22T00:53:28.281Z,4.03
2022-08-22T00:56:22.671Z,4.00
2022-08-22T00:59:26.934Z,3.72
2022-08-22T01:02:09.810Z,3.90
2022-08-22T01:04:51.229Z,3.88
2022-08-22T01:07:38.174Z,3.63
2022-08-22T01:10:14.621Z,3.38
2022-08-22T01:12:50.010Z,4.00
2022-08-22T01:15:24.650Z,3.80
2022-08-22T01:18:09.845Z,4.18
2022-08-22T01:20:57.834Z,3.90
2022-08-22T01:23:33.365Z,4.15
2022-08-22T01:26:19.500Z,4.10
2022-08-22T01:29:04.402Z,3.83
2022-08-22T01:32:06.427Z,3.72
2022-08-22T01:34:54.109Z,3.90
2022-08-22T01:37:59.912Z,4.15
2022-08-22T01:41:03.511Z,4.20
2022-08-22T01:43:59.810Z,4.47
2022-08-22T01:46:42.802Z,4.10
2022-08-22T01:49:23.699Z,4.40
2022-08-22T01:52:12.024Z,4.28
2022-08-22T01:55:00.743Z,4.30
2022-08-22T01:57:27.838Z,3.90
2022-08-22T01:59:59.190Z,4.05
2022-08-22T02:03:03.395Z,3.65
2022-08-22T02:05:37.360Z,3.65
2022-08-22T02:08:20.799Z,4.10
2022-08-22T02:10:59.694Z,4.18
2022-08-22T02:13:26.355Z,3.67
2022-08-22T02:16:14.774Z,4.35
2022-08-22T02:19:05.376Z,4.13
2022-08-22T02:21:58.735Z,4.30
2022-08-22T02:24:37.924Z,4.30
2022-08-22T02:27:07.479Z,4.07
2022-08-22T02:29:49.116Z,4.57
2022-08-22T02:32:28.809Z,4.18
2022-08-22T02:35:03.508Z,4.03
2022-08-22T02:37:35.580Z,4.32
2022-08-22T02:40:10.471Z,4.75
2022-08-22T02:42:47.091Z,3.88
2022-08-22T02:45:45.824Z,4.18
2022-08-22T02:48:19.642Z,3.97
2022-08-22T02:50:57.844Z,3.92
2022-08-22T02:53:37.908Z,3.92
2022-08-22T02:56:08.714Z,3.70
2022-08-22T02:58:51.702Z,3.47
2022-08-22T03:01:33.390Z,3.95
2022-08-22T03:04:30.647Z,3.83
2022-08-22T03:07:21.309Z,3.63
2022-08-22T03:09:56.766Z,4.07
2022-08-22T03:12:56.975Z,4.10
2022-08-22T03:15:31.139Z,3.88
2022-08-22T03:18:14.809Z,4.10
2022-08-22T03:20:54.116Z,4.13
2022-08-22T03:23:31.648Z,4.30
2022-08-22T03:26:16.915Z,3.83
2022-08-22T03:29:00.012Z,4.10
2022-08-22T03:31:28.974Z,4.25
2022-08-22T03:34:17.429Z,4.07
2022-08-22T03:37:10.323Z,3.72
2022-08-22T03:39:47.840Z,4.38
2022-08-22T03:42:46.658Z,4.13
2022-08-22T03:45:34.027Z,4.00
2022-08-22T03:48:27.953Z,4.55
2022-08-22T03:51:11.980Z,4.20
2022-08-22T03:54:05.479Z,4.68
2022-08-22T03:57:02.098Z,4.38
2022-08-22T03:59:34.817Z,4.80
2022-08-22T04:02:43.231Z,4.50
2022-08-22T04:05:25.389Z,4.63
2022-08-22T04:08:15.903Z,4.25
2022-08-22T04:10:48.204Z,4.38
2022-08-22T04:13:27.676Z,4.60
2022-08-22T04:16:31.487Z,4.07
2022-08-22T04:19:16.634Z,4.00
2022-08-22T04:22:17.029Z,4.75
2022-08-22T04:24:55.477Z,4.63
2022-08-22T04:27:55.805Z,4.15
2022-08-22T04:30:40.889Z,4.45
2022-08-22T04:33:22.193Z,4.43
2022-08-22T04:35:57.405Z,4.43
2022-08-22T04:38:47.796Z,4.60
2022-08-22T04:41:25.420Z,4.20
2022-08-22T04:44:00.612Z,4.55
2022-08-22T04:47:04.289Z,4.85
2022-08-22T04:49:52.634Z,4.72
2022-08-22T04:52:41.052Z,4.75
2022-08-22T04:55:33.079Z,4.70
2022-08-22T04:58:38.572Z,4.65
2022-08-22T05:01:24.082Z,4.50
2022-08-22T05:03:58.306Z,4.47
2022-08-22T05:06:29.556Z,4.60
2022-08-22T05:09:01.446Z,4.43
2022-08-22T05:11:29.914Z,4.30
2022-08-22T05:14:26.736Z,5.13
2022-08-22T05:16:56.415Z,4.50
2022-08-22T05:19:32.214Z,4.45
2022-08-22T05:21:59.550Z,4.90
2022-08-22T05:24:33.408Z,4.60
2022-08-22T05:27:11.217Z,4.65
2022-08-22T05:29:41.289Z,4.68
2022-08-22T05:32:16.153Z,4.50
2022-08-22T05:34:45.905Z,4.82
2022-08-22T05:37:17.747Z,4.32
2022-08-22T05:39:49.246Z,4.60
2022-08-22T05:42:23.702Z,4.32
2022-08-22T05:44:50.384Z,4.60
2022-08-22T05:47:38.406Z,4.72
2022-08-22T05:50:10.867Z,4.65
2022-08-22T05:53:11.078Z,4.85
2022-08-22T05:55:49.900Z,4.70
2022-08-22T05:58:41.573Z,4.72
2022-08-22T06:01:20.605Z,4.93
2022-08-22T06:03:57.222Z,5.20
2022-08-22T06:06:26.925Z,5.40
2022-08-22T06:09:06.745Z,4.80
2022-08-22T06:11:45.331Z,4.72
2022-08-22T06:14:47.771Z,4.97
2022-08-22T06:17:18.124Z,5.47
2022-08-22T06:19:50.691Z,4.90
2022-08-22T06:22:23.614Z,4.88
2022-08-22T06:24:54.442Z,4.90
2022-08-22T06:27:24.244Z,5.22
2022-08-22T06:29:58.603Z,5.00
2022-08-22T06:32:44.361Z,4.95
2022-08-22T06:35:25.752Z,4.75
2022-08-22T06:37:57.674Z,5.03
2022-08-22T06:40:26.834Z,4.93
2022-08-22T06:42:54.328Z,4.88
2022-08-22T06:45:32.770Z,5.43
2022-08-22T06:48:05.580Z,4.80
2022-08-22T06:50:39.756Z,5.20
2022-08-22T06:53:31.584Z,5.43
2022-08-22T06:56:06.102Z,5.57
2022-08-22T06:58:40.367Z,5.32
2022-08-22T07:01:12.682Z,5.20
2022-08-22T07:04:03.312Z,5.45
2022-08-22T07:06:36.437Z,5.70
2022-08-22T07:09:05.683Z,5.50
2022-08-22T07:11:43.355Z,5.82
2022-08-22T07:14:15.368Z,5.45
2022-08-22T07:16:55.181Z,5.72
2022-08-22T07:19:39.413Z,5.68
2022-08-22T07:22:15.665Z,5.65
2022-08-22T07:24:52.969Z,6.00
2022-08-22T07:27:31.747Z,5.43
2022-08-22T07:30:10.248Z,5.40
2022-08-22T07:32:52.502Z,5.53
2022-08-22T07:35:28.921Z,5.70
2022-08-22T07:37:55.839Z,5.35
2022-08-22T07:40:25.380Z,5.57
2022-08-22T07:43:13.411Z,5.80
2022-08-22T07:45:57.337Z,5.65
2022-08-22T07:48:26.981Z,5.20
2022-08-22T07:51:01.247Z,5.53
2022-08-22T07:53:57.963Z,5.72
2022-08-22T07:56:31.539Z,5.82
2022-08-22T07:59:17.517Z,5.43
2022-08-22T08:01:51.274Z,5.68
2022-08-22T08:04:23.242Z,5.78
2022-08-22T08:06:53.321Z,5.78
2022-08-22T08:09:21.101Z,5.28
2022-08-22T08:11:51.083Z,5.30
2022-08-22T08:14:20.513Z,5.10
2022-08-22T08:17:09.833Z,4.57
2022-08-22T08:19:40.803Z,4.60
2022-08-22T08:22:07.903Z,4.40
2022-08-22T08:24:42.150Z,5.07
2022-08-22T08:27:38.601Z,4.60
2022-08-22T08:30:13.428Z,4.72
2022-08-22T08:32:46.032Z,4.53
2022-08-22T08:35:21.199Z,5.07
2022-08-22T08:37:52.325Z,4.78
2022-08-22T08:41:03.748Z,4.85
2022-08-22T08:44:00.911Z,4.78
2022-08-22T08:46:39.589Z,4.97
2022-08-22T08:49:35.636Z,5.13
2022-08-22T08:52:17.769Z,5.07
2022-08-22T08:55:22.068Z,5.30
2022-08-22T09:00:51.181Z,4.97
2022-08-22T09:03:31.155Z,5.47
2022-08-22T09:06:42.571Z,4.45
2022-08-22T09:09:46.817Z,4.97
2022-08-22T09:12:56.390Z,5.00
2022-08-22T09:15:42.812Z,4.93
2022-08-22T09:18:22.728Z,5.82
2022-08-22T09:21:11.196Z,5.47
2022-08-22T09:24:07.262Z,5.63
2022-08-22T09:26:58.026Z,4.97
2022-08-22T09:29:55.179Z,4.65
2022-08-22T09:32:35.671Z,4.90
2022-08-22T09:35:11.483Z,4.28
2022-08-22T09:38:01.091Z,4.75
2022-08-22T09:40:47.944Z,4.28
2022-08-22T09:43:33.961Z,4.90
2022-08-22T09:46:15.395Z,4.00
2022-08-22T09:49:16.454Z,3.95
2022-08-22T09:52:15.112Z,3.95
2022-08-22T09:54:58.779Z,3.97
2022-08-22T09:57:38.921Z,3.35
2022-08-22T10:00:05.342Z,3.25
2022-08-22T10:02:43.509Z,4.22
2022-08-22T10:05:35.292Z,3.80
2022-08-22T10:08:11.408Z,3.78
2022-08-22T10:11:00.473Z,3.80
2022-08-22T10:13:46.686Z,3.85
2022-08-22T10:16:41.892Z,4.20
2022-08-22T10:19:42.530Z,3.30
2022-08-22T10:22:44.537Z,3.13
2022-08-22T10:25:42.154Z,3.05
2022-08-22T10:28:24.131Z,3.75
2022-08-22T10:30:55.124Z,3.53
2022-08-22T10:33:33.781Z,3.63
2022-08-22T10:36:22.095Z,3.53
2022-08-22T10:38:55.143Z,3.30
2022-08-22T10:41:38.565Z,3.67
2022-08-22T10:44:17.401Z,3.90
2022-08-22T10:46:57.142Z,3.17
2022-08-22T10:52:15.319Z,3.15
2022-08-22T10:54:48.688Z,4.07
2022-08-22T10:57:36.754Z,3.22
2022-08-22T11:00:12.669Z,3.03
2022-08-22T11:03:16.670Z,3.50
2022-08-22T11:05:50.788Z,3.95
2022-08-22T11:08:23.547Z,3.08
2022-08-22T11:11:19.873Z,3.20
2022-08-22T11:14:12.624Z,3.17
2022-08-22T11:17:23.571Z,2.90
2022-08-22T11:20:14.401Z,2.65
2022-08-22T11:22:40.933Z,2.78
2022-08-22T11:25:15.923Z,3.20
2022-08-22T11:28:05.453Z,2.45
2022-08-22T11:30:47.972Z,2.50
2022-08-22T11:33:47.350Z,2.67
2022-08-22T11:36:39.290Z,2.67
2022-08-22T11:39:18.619Z,3.25
2022-08-22T11:42:06.722Z,2.60
2022-08-22T11:44:50.282Z,2.60
2022-08-22T11:47:26.739Z,3.20
2022-08-22T11:50:01.102Z,2.63
2022-08-22T11:52:51.863Z,2.80
2022-08-22T11:55:23.473Z,2.95
2022-08-22T11:58:01.274Z,2.60
2022-08-22T12:00:39.698Z,2.78
2022-08-22T12:03:33.340Z,3.17
2022-08-22T12:06:31.738Z,2.63
2022-08-22T12:09:33.822Z,2.60
2022-08-22T12:12:08.969Z,2.83
2022-08-22T12:14:54.682Z,2.70
2022-08-22T12:17:55.313Z,2.63
2022-08-22T12:21:01.490Z,3.25
2022-08-22T12:23:48.720Z,2.70
2022-08-22T12:26:45.301Z,3.10
2022-08-22T12:29:39.916Z,2.63
2022-08-22T12:32:39.687Z,2.83
2022-08-22T12:35:19.957Z,3.08
2022-08-22T12:40:48.521Z,2.42
2022-08-22T12:43:27.759Z,2.60
2022-08-22T12:46:23.879Z,2.63
2022-08-22T12:49:09.037Z,2.42
2022-08-22T12:52:04.466Z,2.78
2022-08-22T12:54:34.055Z,2.60
2022-08-22T12:57:15.213Z,2.70
2022-08-22T12:59:55.831Z,2.47
2022-08-22T13:02:32.514Z,2.67
2022-08-22T13:05:22.744Z,2.72
2022-08-22T13:08:04.552Z,2.63
2022-08-22T13:10:58.440Z,2.42
2022-08-22T13:13:36.972Z,2.75
2022-08-22T13:16:15.885Z,2.50
2022-08-22T13:18:53.485Z,2.72
2022-08-22T13:21:26.229Z,2.50
2022-08-22T13:24:05.133Z,2.60
2022-08-22T13:26:40.785Z,2.60
2022-08-22T13:29:29.249Z,2.63
2022-08-22T13:32:07.308Z,2.50
2022-08-22T13:37:12.199Z,2.70
2022-08-22T13:39:43.508Z,2.70
2022-08-22T13:42:27.773Z,2.60
2022-08-22T13:45:02.383Z,2.40
2022-08-22T13:47:32.425Z,2.50
2022-08-22T13:50:23.075Z,2.75
2022-08-22T13:52:58.445Z,2.70
2022-08-22T13:55:55.398Z,2.60
2022-08-22T13:58:41.767Z,2.72
2022-08-22T14:01:43.912Z,2.70
2022-08-22T14:04:35.832Z,2.42
2022-08-22T14:07:03.670Z,2.22
2022-08-22T14:09:53.048Z,2.35
2022-08-22T14:12:30.229Z,2.40
2022-08-22T14:15:04.176Z,2.50
2022-08-22T14:17:38.513Z,2.50
2022-08-22T14:20:32.003Z,2.60
2022-08-22T14:23:04.942Z,2.30
2022-08-22T14:25:37.141Z,2.72
2022-08-22T14:28:21.638Z,2.30
2022-08-22T14:31:01.909Z,2.30
2022-08-22T14:33:37.033Z,2.28
2022-08-22T14:36:23.601Z,2.10
2022-08-22T14:38:59.439Z,2.45
2022-08-22T14:41:52.941Z,2.67
2022-08-22T14:44:30.388Z,2.70
2022-08-22T14:47:04.246Z,2.30
2022-08-22T14:49:33.859Z,2.30
2022-08-22T14:52:19.447Z,2.35
2022-08-22T14:54:46.742Z,2.58
2022-08-22T14:57:19.835Z,2.45
2022-08-22T14:59:50.612Z,2.28
2022-08-22T15:02:25.033Z,2.58
2022-08-22T15:04:54.917Z,2.70
2022-08-22T15:07:54.139Z,2.40
2022-08-22T15:10:25.754Z,3.05
2022-08-22T15:12:56.885Z,2.47
2022-08-22T15:15:30.770Z,2.40
2022-08-22T15:17:57.576Z,2.60
2022-08-22T15:20:36.174Z,2.50
2022-08-22T15:23:18.697Z,2.33
2022-08-22T15:25:56.056Z,2.70
2022-08-22T15:28:24.499Z,2.53
2022-08-22T15:30:54.191Z,2.33
2022-08-22T15:33:32.371Z,2.95
2022-08-22T15:36:15.889Z,2.65
2022-08-22T15:39:12.179Z,2.70
2022-08-22T15:41:46.295Z,2.60
2022-08-22T15:44:30.947Z,2.60
2022-08-22T15:47:10.610Z,2.60
2022-08-22T15:49:52.878Z,2.38
2022-08-22T15:52:25.989Z,2.50
2022-08-22T15:54:57.180Z,2.80
2022-08-22T15:57:40.116Z,2.40
2022-08-22T16:00:34.121Z,2.50
2022-08-22T16:03:05.993Z,2.60
2022-08-22T16:05:54.676Z,2.67
2022-08-22T16:08:33.114Z,2.38
2022-08-22T16:11:02.875Z,2.78
2022-08-22T16:13:33.568Z,2.72
2022-08-22T16:16:02.784Z,2.35
2022-08-22T16:18:36.962Z,2.45
2022-08-22T16:21:06.065Z,2.65
2022-08-22T16:23:51.122Z,3.45
2022-08-22T16:26:36.751Z,2.80
2022-08-22T16:29:17.527Z,2.50
2022-08-22T16:31:44.629Z,2.53
2022-08-22T16:34:17.735Z,2.60
2022-08-22T16:37:06.351Z,2.75
2022-08-22T16:39:38.603Z,2.83
2022-08-22T16:42:39.463Z,3.15
2022-08-22T16:45:11.970Z,2.78
2022-08-22T16:47:52.784Z,2.75
2022-08-22T16:50:38.290Z,2.53
2022-08-22T16:53:10.671Z,2.80
2022-08-22T16:55:39.465Z,2.75
2022-08-22T16:58:09.255Z,2.80
2022-08-22T17:01:04.282Z,2.63
2022-08-22T17:03:45.212Z,2.40
2022-08-22T17:06:34.982Z,2.35
2022-08-22T17:09:32.955Z,2.63
2022-08-22T17:12:37.029Z,2.70
2022-08-22T17:15:23.810Z,2.53
2022-08-22T17:18:18.260Z,2.85
2022-08-22T17:21:06.716Z,2.80
2022-08-22T17:23:42.391Z,2.55
2022-08-22T17:26:26.112Z,3.30
2022-08-22T17:29:01.703Z,3.00
2022-08-22T17:31:43.175Z,2.90
2022-08-22T17:34:12.550Z,2.58
2022-08-22T17:36:54.354Z,3.17
2022-08-22T17:39:51.796Z,2.63
2022-08-22T17:42:38.874Z,2.90
2022-08-22T17:45:38.264Z,2.50
2022-08-22T17:48:24.739Z,2.63
2022-08-22T17:50:57.125Z,2.75
2022-08-22T17:53:35.198Z,2.72
2022-08-22T17:56:22.809Z,2.60
2022-08-22T17:59:20.809Z,2.60
2022-08-22T18:01:57.072Z,2.95
2022-08-22T18:04:34.995Z,2.70
2022-08-22T18:07:25.146Z,2.70
2022-08-22T18:10:10.891Z,2.70
2022-08-22T18:12:49.635Z,2.60
2022-08-22T18:15:25.370Z,2.80
2022-08-22T18:18:38.966Z,2.83
2022-08-22T18:21:32.010Z,2.90
2022-08-22T18:24:12.998Z,2.67
2022-08-22T18:26:42.553Z,3.33
2022-08-22T18:29:17.337Z,3.00
2022-08-22T18:32:02.717Z,3.17
2022-08-22T18:34:52.304Z,2.80
2022-08-22T18:39:56.310Z,3.03
2022-08-22T18:42:36.844Z,2.88
2022-08-22T18:45:03.943Z,2.72
2022-08-22T18:47:33.149Z,3.40
2022-08-22T18:50:24.404Z,2.90
2022-08-22T18:52:53.421Z,3.42
2022-08-22T18:55:43.168Z,2.90
2022-08-22T18:58:37.993Z,3.38
2022-08-22T19:01:31.068Z,3.20
2022-08-22T19:04:08.445Z,3.50
2022-08-22T19:07:02.692Z,3.53
2022-08-22T19:10:06.858Z,3.95
2022-08-22T19:12:49.243Z,3.58
2022-08-22T19:15:22.806Z,4.20
2022-08-22T19:18:07.909Z,3.92
2022-08-22T19:20:57.092Z,3.33
2022-08-22T19:23:32.683Z,3.80
2022-08-22T19:26:24.497Z,4.18
2022-08-22T19:28:53.910Z,4.22
2022-08-22T19:31:41.845Z,4.80
2022-08-22T19:34:25.112Z,3.92
2022-08-22T19:37:31.778Z,3.85
2022-08-22T19:40:06.818Z,4.47
2022-08-22T19:42:36.982Z,5.25
2022-08-22T19:45:26.474Z,4.95
2022-08-22T19:47:57.989Z,5.00
2022-08-22T19:50:30.997Z,4.60
2022-08-22T19:53:06.553Z,4.18
2022-08-22T19:55:39.123Z,4.80
2022-08-22T19:58:33.028Z,3.95
2022-08-22T20:01:12.784Z,4.25
2022-08-22T20:03:50.411Z,4.30
2022-08-22T20:06:44.105Z,4.53
2022-08-22T20:09:22.714Z,4.57
2022-08-22T20:12:00.151Z,4.50
2022-08-22T20:14:30.749Z,4.53
2022-08-22T20:16:59.735Z,5.13
2022-08-22T20:22:58.357Z,5.25
2022-08-22T20:25:43.679Z,4.82
2022-08-22T20:28:29.598Z,4.90
2022-08-22T20:31:02.280Z,4.68
2022-08-22T20:33:35.989Z,4.93
2022-08-22T20:36:06.460Z,4.90
2022-08-22T20:38:55.944Z,5.43
2022-08-22T20:41:29.359Z,6.00
2022-08-22T20:44:02.416Z,5.88
2022-08-22T20:46:43.654Z,5.95
2022-08-22T20:49:17.694Z,6.47
2022-08-22T20:52:10.936Z,6.28
2022-08-22T20:54:40.470Z,5.63
2022-08-22T20:57:19.249Z,5.47
2022-08-22T20:59:54.822Z,5.95
2022-08-22T21:02:30.186Z,5.88
2022-08-22T21:05:03.202Z,5.70
2022-08-22T21:07:36.765Z,5.70
2022-08-22T21:10:39.853Z,5.68
2022-08-22T21:13:08.557Z,6.22
2022-08-22T21:15:47.492Z,5.60
2022-08-22T21:18:24.680Z,5.68
2022-08-22T21:20:51.996Z,6.28
2022-08-22T21:23:19.662Z,6.63
2022-08-22T21:25:54.938Z,5.78
2022-08-22T21:28:30.993Z,5.63
2022-08-22T21:30:58.720Z,5.72
2022-08-22T21:33:25.714Z,5.35
2022-08-22T21:35:59.027Z,5.38
2022-08-22T21:38:26.453Z,6.15
2022-08-22T21:41:00.044Z,6.05
2022-08-22T21:43:32.690Z,6.40
2022-08-22T21:45:59.659Z,5.75
2022-08-22T21:48:59.961Z,6.00
2022-08-22T21:51:43.508Z,5.82
2022-08-22T21:54:25.092Z,6.45
2022-08-22T21:56:58.408Z,5.75
2022-08-22T21:59:50.712Z,6.68
2022-08-22T22:02:28.541Z,5.85
2022-08-22T22:04:55.945Z,5.95
2022-08-22T22:07:23.746Z,5.82
2022-08-22T22:09:54.395Z,6.18
2022-08-22T22:12:23.241Z,5.82
2022-08-22T22:14:50.109Z,5.63
2022-08-22T22:17:18.411Z,6.40
2022-08-22T22:19:45.544Z,6.22
2022-08-22T22:22:11.989Z,6.10
2022-08-22T22:24:38.569Z,6.85
2022-08-22T22:27:05.932Z,6.53
2022-08-22T22:29:34.023Z,5.93
2022-08-22T22:32:00.516Z,6.38
2022-08-22T22:34:27.195Z,6.07
2022-08-22T22:36:54.632Z,5.80
2022-08-22T22:39:21.254Z,6.20
2022-08-22T22:41:48.924Z,5.70
2022-08-22T22:44:15.408Z,6.32
2022-08-22T22:46:41.974Z,6.70
2022-08-22T22:49:11.634Z,5.97
2022-08-22T22:51:38.168Z,6.25
2022-08-22T22:54:05.004Z,6.25
2022-08-22T22:56:31.528Z,6.50
2022-08-22T22:59:00.859Z,6.35
2022-08-22T23:02:01.514Z,6.70
2022-08-22T23:04:28.680Z,6.00
2022-08-22T23:06:55.263Z,6.22
2022-08-22T23:09:21.810Z,6.25
2022-08-22T23:11:54.741Z,6.15
2022-08-22T23:14:21.235Z,6.00
2022-08-22T23:16:47.775Z,6.50
2022-08-22T23:19:16.771Z,6.55
2022-08-22T23:21:44.954Z,6.57
2022-08-22T23:24:12.641Z,6.30
2022-08-22T23:26:39.703Z,6.32
2022-08-22T23:29:06.708Z,6.82
2022-08-22T23:31:42.664Z,6.53
2022-08-22T23:34:12.023Z,6.25
2022-08-22T23:36:40.339Z,7.18
2022-08-22T23:39:08.164Z,6.97
2022-08-22T23:41:36.570Z,6.40
2022-08-22T23:44:05.739Z,6.57
2022-08-22T23:46:32.414Z,8.50
2022-08-22T23:49:00.510Z,8.15
2022-08-22T23:51:27.467Z,7.90
2022-08-22T23:53:56.667Z,8.50
2022-08-22T23:56:29.652Z,7.63
2022-08-22T23:58:57.240Z,7.93
